Time;durP1;ratioP1;P1;durP2;ratioP2;P2;SDS_P1;SDS_P2;PMS_P1;PMS_P2;Temp;Humidity;BMP_temperature;BMP_pressure;BME280_temperature;BME280_humidity;BME280_pressure;Samples;Min_cycle;Max_cycle;Signal;HPM_P1;HPM_P2
2021/09/13 03:30:18;;;;;;;5.55;3.60;;;;;;;19.31;60.82;98896.13;8351372;23;20183;-80
2021/09/13 03:33:40;;;;;;;4.77;3.80;;;;;;;19.11;60.67;98871.31;6865330;28;20276;-80
2021/09/13 03:37:03;;;;;;;5.10;4.60;;;;;;;18.89;61.47;98893.22;6876505;28;20228;-80
2021/09/13 03:40:24;;;;;;;5.37;4.60;;;;;;;18.84;61.85;98890.41;6889425;28;20215;-81
2021/09/13 03:43:46;;;;;;;4.43;4.03;;;;;;;18.97;61.85;98883.69;6893186;28;20668;-80
2021/09/13 03:47:09;;;;;;;6.50;3.93;;;;;;;19.35;60.56;98880.84;6892230;28;20200;-80
2021/09/13 03:50:31;;;;;;;4.10;3.80;;;;;;;19.03;59.95;98834.31;6893721;28;20232;-80
2021/09/13 03:53:52;;;;;;;6.10;4.17;;;;;;;19.39;59.55;98868.34;6896875;28;20208;-80
2021/09/13 03:57:14;;;;;;;4.30;3.93;;;;;;;18.82;59.52;98805.13;6897590;28;20231;-80
2021/09/13 04:00:36;;;;;;;4.40;4.00;;;;;;;18.96;59.63;98835.59;6896817;28;20224;-81
2021/09/13 04:04:01;;;;;;;4.30;3.90;;;;;;;18.79;61.10;98886.78;6894495;28;20573;-80
2021/09/13 04:07:26;;;;;;;4.93;3.90;;;;;;;18.86;61.33;98865.56;6894182;28;20193;-81
2021/09/13 04:11:03;;;;;;;4.20;3.80;;;;;;;18.98;61.36;98864.31;6883844;28;20335;-80
2021/09/13 04:14:27;;;;;;;5.00;3.77;;;;;;;19.11;61.00;98855.72;6862269;28;20348;-80
2021/09/13 04:17:48;;;;;;;4.90;4.30;;;;;;;18.23;61.31;98740.56;6863497;28;20578;-80
2021/09/13 04:21:13;;;;;;;5.57;3.80;;;;;;;19.17;60.13;98823.81;6889120;28;20237;-80
2021/09/13 04:24:38;;;;;;;4.70;3.90;;;;;;;19.25;59.90;98831.53;6921086;28;20204;-81
2021/09/13 04:27:59;;;;;;;5.33;4.10;;;;;;;19.08;60.19;98848.03;6894878;28;20215;-82
2021/09/13 04:31:21;;;;;;;5.10;4.50;;;;;;;18.15;63.98;98846.59;6890070;28;20233;-81
2021/09/13 04:34:43;;;;;;;4.50;4.10;;;;;;;18.00;65.29;98857.31;6897819;28;20607;-82
2021/09/13 04:38:06;;;;;;;6.40;4.43;;;;;;;18.35;64.57;98858.66;6893129;28;20219;-82
2021/09/13 04:41:28;;;;;;;5.27;4.07;;;;;;;18.99;62.62;98848.75;6869861;28;20277;-81
2021/09/13 04:44:50;;;;;;;4.40;4.03;;;;;;;19.24;61.28;98851.78;6865052;28;20339;-81
2021/09/13 04:48:11;;;;;;;6.23;3.97;;;;;;;19.12;61.35;98853.81;6863911;28;20240;-82
2021/09/13 04:51:33;;;;;;;6.13;3.93;;;;;;;19.27;61.21;98843.88;6864868;28;20268;-82
2021/09/13 04:54:56;;;;;;;5.70;4.10;;;;;;;19.49;60.47;98860.19;6864723;28;20212;-81
2021/09/13 04:58:17;;;;;;;5.73;4.30;;;;;;;19.19;61.01;98855.25;6863828;28;20596;-81
2021/09/13 05:01:39;;;;;;;3.97;3.67;;;;;;;19.15;61.06;98848.66;6867839;28;20238;-82
2021/09/13 05:05:01;;;;;;;6.23;4.70;;;;;;;19.07;61.58;98867.41;6869267;28;20259;-83
2021/09/13 05:08:22;;;;;;;4.40;4.00;;;;;;;19.10;61.37;98853.25;6879267;28;20822;-81
2021/09/13 05:11:46;;;;;;;5.73;4.60;;;;;;;18.83;62.31;98866.91;6890470;28;20228;-82
2021/09/13 05:15:08;;;;;;;6.17;4.30;;;;;;;19.00;62.17;98856.72;6890468;28;20557;-81
2021/09/13 05:18:30;;;;;;;4.40;4.07;;;;;;;19.19;61.45;98866.19;6888386;28;20215;-81
2021/09/13 05:21:52;;;;;;;4.50;4.10;;;;;;;19.21;60.99;98866.78;6881008;28;20232;-80
2021/09/13 05:25:13;;;;;;;7.43;4.20;;;;;;;19.54;60.27;98876.66;6869846;28;20223;-81
2021/09/13 05:28:36;;;;;;;6.33;3.77;;;;;;;19.51;59.25;98877.19;6889036;28;20204;-80
2021/09/13 05:31:58;;;;;;;4.47;3.90;;;;;;;19.43;58.63;98883.94;6889070;28;20585;-80
2021/09/13 05:35:20;;;;;;;5.13;4.57;;;;;;;18.50;61.46;98882.59;6879295;28;20234;-81
2021/09/13 05:38:44;;;;;;;6.50;4.77;;;;;;;18.81;61.98;98869.06;6861879;28;20204;-81
2021/09/13 05:42:06;;;;;;;6.43;4.93;;;;;;;18.95;61.46;98878.53;6873133;28;20224;-80
2021/09/13 05:45:29;;;;;;;7.00;5.60;;;;;;;18.92;61.98;98891.88;6888786;28;20207;-81
2021/09/13 05:48:51;;;;;;;5.30;4.10;;;;;;;19.17;61.51;98890.22;6867644;28;20211;-82
2021/09/13 05:52:12;;;;;;;5.07;4.07;;;;;;;19.32;60.41;98863.06;6902094;28;20285;-83
2021/09/13 05:55:34;;;;;;;3.83;3.53;;;;;;;19.49;59.74;98895.75;6887777;28;20266;-81
2021/09/13 05:58:56;;;;;;;4.87;4.17;;;;;;;19.75;59.28;98887.50;6868659;28;20209;-82
2021/09/13 06:02:18;;;;;;;4.80;4.33;;;;;;;19.31;60.30;98907.06;6865488;28;20219;-82
2021/09/13 06:05:40;;;;;;;5.30;4.40;;;;;;;19.81;59.54;98900.13;6886086;28;20572;-81
2021/09/13 06:09:02;;;;;;;3.80;3.50;;;;;;;20.10;58.99;98896.00;6888398;28;20215;-81
2021/09/13 06:12:23;;;;;;;5.33;4.83;;;;;;;19.87;58.19;98896.34;6888546;28;20232;-83
2021/09/13 06:15:45;;;;;;;7.00;4.53;;;;;;;20.20;58.20;98906.19;6883034;28;20387;-81
2021/09/13 06:19:09;;;;;;;4.60;4.20;;;;;;;20.28;58.19;98901.03;6862002;28;20592;-82
2021/09/13 06:22:30;;;;;;;4.93;3.43;;;;;;;20.55;57.47;98904.47;6879381;28;20297;-81
2021/09/13 06:25:52;;;;;;;5.43;4.03;;;;;;;20.58;57.39;98914.88;6888317;28;20205;-82
2021/09/13 06:29:14;;;;;;;4.20;3.90;;;;;;;20.66;57.45;98914.41;6914373;28;20219;-82
2021/09/13 06:32:36;;;;;;;7.07;4.50;;;;;;;19.55;61.06;98908.38;6914986;28;20243;-82
2021/09/13 06:35:59;;;;;;;4.80;4.30;;;;;;;20.20;59.77;98898.81;6881624;28;20234;-82
2021/09/13 06:39:21;;;;;;;4.00;3.60;;;;;;;21.11;57.70;98916.53;6860282;28;20552;-84
2021/09/13 06:42:42;;;;;;;3.93;3.63;;;;;;;21.08;56.21;98893.22;6881228;28;20224;-82
2021/09/13 06:46:12;;;;;;;5.03;4.10;;;;;;;20.58;59.21;98892.16;6880924;28;20238;-82
2021/09/13 06:49:34;;;;;;;7.20;3.27;;;;;;;21.71;56.81;98893.59;6860813;28;20213;-82
2021/09/13 06:52:57;;;;;;;3.93;3.63;;;;;;;22.14;55.25;98879.28;6867769;28;20228;-82
2021/09/13 06:56:19;;;;;;;3.87;3.50;;;;;;;21.98;55.15;98890.56;6869847;28;20221;-82
2021/09/13 06:59:41;;;;;;;4.40;3.37;;;;;;;22.40;54.34;98883.63;6884362;28;20314;-82
2021/09/13 07:03:04;;;;;;;3.90;3.50;;;;;;;22.48;53.94;98902.31;6887909;28;20223;-82
2021/09/13 07:06:27;;;;;;;4.00;3.23;;;;;;;23.00;53.34;98899.91;6887899;28;20207;-82
2021/09/13 07:09:50;;;;;;;3.40;3.10;;;;;;;23.96;49.64;98900.13;6887555;28;20359;-82
2021/09/13 07:13:12;;;;;;;3.70;3.07;;;;;;;23.43;51.20;98903.81;6887396;28;20269;-82
2021/09/13 07:16:33;;;;;;;3.50;3.20;;;;;;;23.90;50.36;98895.78;6887526;28;20230;-82
2021/09/13 07:19:56;;;;;;;5.03;3.20;;;;;;;23.21;51.87;98906.97;6885613;28;20209;-82
2021/09/13 07:23:18;;;;;;;5.83;3.93;;;;;;;23.87;50.80;98893.56;6917344;28;20231;-82
2021/09/13 07:26:41;;;;;;;5.60;3.60;;;;;;;24.36;49.10;98902.50;6920002;28;20200;-82
2021/09/13 07:30:03;;;;;;;7.67;3.47;;;;;;;24.73;48.62;98900.69;6919003;28;20263;-82
2021/09/13 07:33:25;;;;;;;4.03;3.03;;;;;;;24.96;46.91;98901.81;6918958;28;20236;-81
2021/09/13 07:36:46;;;;;;;6.43;3.60;;;;;;;25.35;46.00;98907.91;6919240;28;20228;-82
2021/09/13 07:40:10;;;;;;;3.67;3.30;;;;;;;24.74;47.41;98879.47;6919013;28;20207;-82
2021/09/13 07:43:33;;;;;;;5.77;3.20;;;;;;;26.09;44.32;98905.13;6919107;28;20238;-81
2021/09/13 07:46:54;;;;;;;3.53;3.20;;;;;;;25.60;44.61;98902.84;6919605;28;20238;-82
2021/09/13 07:50:16;;;;;;;3.53;3.23;;;;;;;25.63;45.76;98906.94;6919015;28;20210;-82
2021/09/13 07:53:38;;;;;;;3.53;3.20;;;;;;;26.30;44.11;98909.19;6920580;28;20687;-82
2021/09/13 07:56:59;;;;;;;3.30;3.00;;;;;;;25.95;45.69;98912.56;6918617;28;20237;-82
2021/09/13 08:00:22;;;;;;;3.83;2.80;;;;;;;25.77;44.79;98919.69;6891353;28;20212;-81
2021/09/13 08:03:44;;;;;;;3.73;3.10;;;;;;;25.57;45.08;98910.91;6891868;28;20209;-82
2021/09/13 08:07:06;;;;;;;3.30;3.00;;;;;;;26.24;43.90;98911.19;6892434;28;20212;-82
2021/09/13 08:10:28;;;;;;;2.77;2.57;;;;;;;25.28;44.69;98921.28;6891366;28;20204;-82
2021/09/13 08:13:49;;;;;;;3.40;3.10;;;;;;;24.87;45.10;98909.94;6892278;28;20208;-82
2021/09/13 08:17:12;;;;;;;3.93;3.07;;;;;;;26.44;43.81;98915.53;6891464;28;20225;-82
2021/09/13 08:20:34;;;;;;;3.50;2.50;;;;;;;27.06;41.99;98921.22;6872027;28;20246;-83
2021/09/13 08:23:56;;;;;;;3.60;2.50;;;;;;;26.97;42.17;98925.03;6886723;28;20219;-82
2021/09/13 08:27:18;;;;;;;2.97;2.77;;;;;;;26.80;41.90;98924.81;6886714;28;20245;-82
2021/09/13 08:30:41;;;;;;;3.50;2.57;;;;;;;27.23;41.24;98932.53;6864371;28;20233;-82
2021/09/13 08:34:04;;;;;;;2.80;2.50;;;;;;;27.04;41.67;98939.28;6864328;28;20280;-82
2021/09/13 08:37:26;;;;;;;2.67;2.47;;;;;;;27.15;41.92;98936.00;6888066;28;20238;-82
2021/09/13 08:40:48;;;;;;;2.70;2.50;;;;;;;26.58;43.05;98939.34;6869228;28;20715;-82
2021/09/13 08:44:10;;;;;;;3.60;2.60;;;;;;;25.89;44.15;98938.59;6888975;28;20208;-82
2021/09/13 08:47:35;;;;;;;3.77;2.40;;;;;;;27.04;42.39;98933.72;6891075;28;20204;-82
2021/09/13 08:51:19;;;;;;;3.03;2.83;;;;;;;27.28;41.42;98884.50;6890671;28;20229;-81
2021/09/13 08:54:40;;;;;;;3.00;2.80;;;;;;;27.60;41.58;98929.47;6890869;28;20332;-82
2021/09/13 08:58:03;;;;;;;3.30;2.70;;;;;;;28.21;40.46;98918.56;6871037;28;20571;-82
2021/09/13 09:01:25;;;;;;;2.67;2.47;;;;;;;27.95;40.66;98927.84;6863311;28;20232;-82
2021/09/13 09:04:47;;;;;;;3.27;2.97;;;;;;;27.62;41.48;98931.91;6864133;28;20216;-82
2021/09/13 09:08:11;;;;;;;3.97;2.60;;;;;;;27.92;41.33;98926.50;6889529;28;20654;-82
2021/09/13 09:11:56;;;;;;;2.80;2.60;;;;;;;28.18;40.64;98940.56;6882787;28;20692;-82
2021/09/13 09:15:17;;;;;;;2.50;2.30;;;;;;;28.90;39.26;98911.44;6890850;28;20201;-82
2021/09/13 09:18:40;;;;;;;4.07;2.77;;;;;;;29.69;37.32;98922.09;6862850;28;20271;-82
2021/09/13 09:22:19;;;;;;;4.63;2.80;;;;;;;29.60;37.03;98885.13;6864455;28;20224;-83
2021/09/13 09:25:42;;;;;;;4.90;3.00;;;;;;;29.23;37.62;98927.41;6877633;28;20209;-83
2021/09/13 09:29:04;;;;;;;2.43;2.33;;;;;;;28.07;39.74;98920.56;6863348;28;20212;-82
2021/09/13 09:32:27;;;;;;;3.13;2.83;;;;;;;28.14;40.35;98901.53;6864503;28;20245;-80
2021/09/13 09:35:51;;;;;;;2.90;2.70;;;;;;;27.41;41.47;98909.41;6888711;28;20208;-81
2021/09/13 09:39:13;;;;;;;4.37;2.80;;;;;;;28.40;38.59;98910.03;6882508;28;20221;-78
2021/09/13 09:42:38;;;;;;;4.07;2.80;;;;;;;28.58;38.53;98892.34;6881187;28;20226;-81
2021/09/13 09:46:00;;;;;;;5.67;2.60;;;;;;;29.32;38.05;98906.00;6934573;23;20231;-85
2021/09/13 09:49:23;;;;;;;2.67;2.30;;;;;;;30.06;36.62;98893.63;6901767;28;20202;-83
2021/09/13 09:52:44;;;;;;;3.13;2.57;;;;;;;28.42;40.05;98902.25;6887303;28;20225;-86
2021/09/13 09:56:13;;;;;;;3.33;3.00;;;;;;;28.70;38.47;98906.44;6881681;28;20237;-83
2021/09/13 09:59:37;;;;;;;2.67;2.47;;;;;;;29.36;38.57;98889.53;6867207;28;20201;-83
2021/09/13 10:02:59;;;;;;;2.80;2.60;;;;;;;29.37;38.42;98894.72;6889229;28;20213;-82
2021/09/13 10:06:21;;;;;;;3.70;2.80;;;;;;;30.11;37.26;98901.81;6889755;28;20235;-83
2021/09/13 10:09:44;;;;;;;2.87;2.67;;;;;;;30.24;37.06;98886.09;6876732;28;20213;-85
2021/09/13 10:13:05;;;;;;;3.43;3.13;;;;;;;30.42;36.92;98890.47;6863260;28;20209;-85
2021/09/13 10:16:29;;;;;;;3.60;3.30;;;;;;;29.46;38.63;98845.56;6888457;28;20230;-83
2021/09/13 10:19:51;;;;;;;3.97;3.13;;;;;;;30.47;37.14;98885.53;6887068;28;20207;-84
2021/09/13 10:23:15;;;;;;;2.70;2.50;;;;;;;30.00;37.30;98885.75;6885053;28;20228;-83
2021/09/13 10:26:39;;;;;;;3.90;2.90;;;;;;;29.09;38.89;98868.41;6885561;28;20232;-83
2021/09/13 10:30:19;;;;;;;3.63;2.90;;;;;;;30.55;36.88;98872.75;6885799;28;20211;-84
2021/09/13 10:33:59;;;;;;;4.83;3.20;;;;;;;29.91;37.00;98869.09;6886740;28;20208;-84
2021/09/13 10:37:22;;;;;;;4.50;2.97;;;;;;;30.20;36.76;98872.00;6887372;28;20235;-84
2021/09/13 10:40:43;;;;;;;4.33;2.97;;;;;;;30.02;37.78;98872.38;6886320;28;20212;-83
2021/09/13 10:44:06;;;;;;;3.40;3.10;;;;;;;30.19;36.67;98859.25;6886990;28;20211;-83
2021/09/13 10:47:28;;;;;;;3.27;3.00;;;;;;;30.78;35.59;98852.69;6895039;28;20238;-84
2021/09/13 10:50:52;;;;;;;3.07;2.77;;;;;;;30.71;36.38;98854.38;6891619;28;20222;-82
2021/09/13 10:54:14;;;;;;;3.27;3.00;;;;;;;30.33;37.02;98859.06;6875316;28;20235;-82
2021/09/13 10:57:54;;;;;;;4.23;3.10;;;;;;;29.85;37.42;98856.50;6874775;28;20231;-82
2021/09/13 11:01:26;;;;;;;3.53;2.97;;;;;;;28.35;40.89;98852.72;6875856;28;20602;-82
2021/09/13 11:05:21;;;;;;;3.80;3.40;;;;;;;28.79;39.85;98846.25;6888869;28;20633;-82
2021/09/13 11:08:45;;;;;;;4.57;3.13;;;;;;;29.62;38.52;98849.53;6898648;28;20205;-83
2021/09/13 11:12:07;;;;;;;3.70;3.40;;;;;;;30.55;36.73;98831.78;6901373;28;20219;-81
2021/09/13 11:15:29;;;;;;;3.40;3.03;;;;;;;30.50;36.32;98834.78;6893644;28;20298;-82
2021/09/13 11:18:50;;;;;;;3.27;3.07;;;;;;;29.39;38.59;98795.22;6873804;28;20237;-82
2021/09/13 11:22:12;;;;;;;3.73;3.33;;;;;;;30.78;36.04;98827.63;6873688;28;20214;-82
2021/09/13 11:25:35;;;;;;;3.60;2.80;;;;;;;31.70;34.66;98793.84;6894842;28;20251;-80
2021/09/13 11:28:58;;;;;;;4.03;3.37;;;;;;;31.98;33.91;98813.59;6894669;28;20206;-80
2021/09/13 11:32:20;;;;;;;3.77;3.47;;;;;;;30.73;35.75;98813.88;6889872;28;20228;-79
2021/09/13 11:35:41;;;;;;;3.73;3.37;;;;;;;31.30;33.99;98791.94;6864886;28;20228;-80
2021/09/13 11:39:06;;;;;;;3.40;3.07;;;;;;;30.94;35.52;98813.91;6863787;28;20272;-80
2021/09/13 11:42:31;;;;;;;3.67;3.37;;;;;;;29.87;37.02;98815.31;6865904;28;20222;-83
2021/09/13 11:46:04;;;;;;;3.37;3.13;;;;;;;30.21;36.41;98778.25;6864332;28;20235;-80
2021/09/13 11:49:28;;;;;;;3.30;3.10;;;;;;;31.87;33.78;98792.88;6873569;28;20684;-81
2021/09/13 11:52:50;;;;;;;3.60;3.30;;;;;;;31.41;34.74;98804.25;6890974;28;20215;-80
2021/09/13 11:56:12;;;;;;;3.73;3.40;;;;;;;31.58;33.66;98804.13;6868415;28;20260;-81
2021/09/13 11:59:35;;;;;;;4.50;3.07;;;;;;;32.03;33.80;98796.66;6863492;28;20270;-81
2021/09/13 12:03:00;;;;;;;3.13;2.83;;;;;;;32.25;32.82;98799.06;6881397;28;20216;-81
2021/09/13 12:06:22;;;;;;;5.50;3.07;;;;;;;33.02;31.91;98798.84;6886138;28;20225;-81
2021/09/13 12:09:46;;;;;;;3.50;3.20;;;;;;;32.51;32.44;98794.78;6889803;28;20596;-81
2021/09/13 12:13:10;;;;;;;3.80;3.00;;;;;;;31.78;33.85;98795.75;6894075;28;20222;-81
2021/09/13 12:16:33;;;;;;;3.40;3.10;;;;;;;33.00;31.46;98799.19;6894092;28;20231;-81
2021/09/13 12:20:20;;;;;;;3.67;3.33;;;;;;;32.22;32.55;98791.31;6894804;28;20236;-81
2021/09/13 12:23:45;;;;;;;3.47;2.90;;;;;;;32.34;32.23;98777.41;6895742;28;20213;-80
2021/09/13 12:27:19;;;;;;;3.23;3.03;;;;;;;31.86;33.31;98794.03;6893923;28;20604;-80
2021/09/13 12:30:42;;;;;;;3.10;2.90;;;;;;;32.91;31.46;98780.94;6885059;28;20297;-80
2021/09/13 12:34:05;;;;;;;3.10;2.80;;;;;;;33.21;30.80;98780.31;6883745;28;20577;-81
2021/09/13 12:37:30;;;;;;;4.00;2.80;;;;;;;33.30;31.03;98778.19;6867075;28;20837;-80
2021/09/13 12:40:57;;;;;;;3.53;3.23;;;;;;;32.59;30.87;98768.72;6866735;28;20630;-80
2021/09/13 12:44:21;;;;;;;3.27;2.97;;;;;;;32.88;29.27;98776.88;6876269;28;20689;-80
2021/09/13 12:47:49;;;;;;;3.40;3.10;;;;;;;31.83;31.06;98759.28;6892913;28;20593;-83
2021/09/13 12:51:17;;;;;;;3.10;2.90;;;;;;;33.19;30.79;98751.88;6888799;28;20185;-82
2021/09/13 12:54:39;;;;;;;3.10;2.90;;;;;;;32.84;30.70;98753.59;6888890;28;20204;-82
2021/09/13 12:58:02;;;;;;;3.30;3.00;;;;;;;33.07;29.89;98754.69;6888743;28;20241;-81
2021/09/13 13:01:29;;;;;;;2.87;2.67;;;;;;;33.65;28.83;98748.47;6868430;28;20211;-82
2021/09/13 13:04:50;;;;;;;2.83;2.63;;;;;;;33.61;27.69;98735.56;6861835;28;20254;-84
2021/09/13 13:08:14;;;;;;;3.00;2.70;;;;;;;33.02;28.13;98742.97;6868414;28;20589;-81
2021/09/13 13:11:36;;;;;;;3.03;2.73;;;;;;;32.79;28.54;98725.88;6891935;28;20574;-80
2021/09/13 13:14:59;;;;;;;2.63;2.43;;;;;;;32.18;28.92;98715.03;6870123;28;20255;-80
2021/09/13 13:18:22;;;;;;;2.40;2.30;;;;;;;32.86;28.91;98717.75;6863874;28;20333;-81
2021/09/13 13:21:46;;;;;;;2.80;2.60;;;;;;;32.24;30.09;98722.88;6865927;28;20224;-79
2021/09/13 13:25:11;;;;;;;3.90;2.57;;;;;;;32.33;29.14;98718.00;6866629;28;20204;-80
2021/09/13 13:28:32;;;;;;;2.93;2.67;;;;;;;32.17;30.08;98707.84;6865994;28;20242;-79
2021/09/13 13:31:57;;;;;;;2.80;2.60;;;;;;;32.84;29.17;98706.09;6869272;28;20640;-78
2021/09/13 13:35:19;;;;;;;2.97;2.67;;;;;;;32.95;28.66;98698.84;6865521;28;20229;-79
2021/09/13 13:38:41;;;;;;;3.30;2.80;;;;;;;33.32;28.16;98696.78;6866265;28;20247;-79
2021/09/13 13:42:04;;;;;;;2.50;2.30;;;;;;;32.78;29.13;98701.91;6886297;28;20215;-79
2021/09/13 13:45:26;;;;;;;2.97;2.67;;;;;;;33.32;27.95;98692.00;6892004;28;20215;-79
2021/09/13 13:48:47;;;;;;;3.53;2.73;;;;;;;32.60;29.04;98694.16;6891250;28;20206;-79
2021/09/13 13:52:09;;;;;;;2.60;2.40;;;;;;;32.96;28.07;98675.34;6891971;28;20215;-79
2021/09/13 13:55:32;;;;;;;3.03;2.67;;;;;;;33.23;28.29;98682.09;6892065;28;20225;-79
2021/09/13 13:58:55;;;;;;;2.90;2.70;;;;;;;32.55;30.07;98683.22;6891684;28;20239;-79
2021/09/13 14:02:17;;;;;;;2.70;2.50;;;;;;;32.67;27.74;98681.19;6891943;28;20318;-79
2021/09/13 14:05:39;;;;;;;3.47;2.47;;;;;;;31.38;29.82;98687.91;6868097;28;20275;-78
2021/09/13 14:09:00;;;;;;;3.33;2.50;;;;;;;32.39;29.57;98685.09;6878202;28;20209;-79
2021/09/13 14:12:22;;;;;;;2.97;2.70;;;;;;;32.85;28.33;98690.16;6888977;28;20218;-78
2021/09/13 14:15:45;;;;;;;2.87;2.67;;;;;;;32.39;29.52;98685.09;6892427;28;20224;-78
2021/09/13 14:19:07;;;;;;;3.93;2.80;;;;;;;33.12;28.45;98684.59;6892392;28;20229;-78
2021/09/13 14:22:29;;;;;;;2.93;2.53;;;;;;;32.31;28.46;98689.63;6884708;28;20216;-78
2021/09/13 14:25:51;;;;;;;2.37;2.27;;;;;;;31.02;29.41;98682.97;6867005;28;20237;-79
2021/09/13 14:29:13;;;;;;;2.83;2.63;;;;;;;31.53;29.15;98671.34;6877697;28;20242;-78
2021/09/13 14:32:35;;;;;;;3.30;2.60;;;;;;;32.23;29.36;98678.53;6893896;28;20208;-79
2021/09/13 14:35:57;;;;;;;2.87;2.60;;;;;;;32.49;28.97;98674.25;6897442;28;20228;-79
2021/09/13 14:39:19;;;;;;;2.77;2.57;;;;;;;32.98;27.26;98673.00;6874268;28;20219;-79
2021/09/13 14:42:41;;;;;;;3.10;2.77;;;;;;;32.83;27.56;98675.75;6895267;28;20208;-80
2021/09/13 14:46:02;;;;;;;2.67;2.57;;;;;;;32.14;28.91;98672.28;6894346;28;20239;-81
2021/09/13 14:49:26;;;;;;;2.70;2.50;;;;;;;32.38;27.98;98666.72;6884044;28;20214;-81
2021/09/13 14:52:47;;;;;;;3.57;2.80;;;;;;;32.25;28.09;98671.47;6866282;28;20572;-80
2021/09/13 14:56:09;;;;;;;3.20;2.43;;;;;;;31.76;29.85;98667.00;6877375;28;20228;-79
2021/09/13 14:59:30;;;;;;;2.93;2.63;;;;;;;32.23;28.53;98665.41;6880526;28;20234;-78
2021/09/13 15:02:52;;;;;;;2.33;2.23;;;;;;;32.72;28.49;98663.41;6871581;28;20233;-79
2021/09/13 15:06:15;;;;;;;3.07;2.83;;;;;;;32.48;30.12;98669.84;6865704;28;20244;-79
2021/09/13 15:09:37;;;;;;;2.63;2.43;;;;;;;32.60;29.43;98667.03;6864987;28;20775;-79
2021/09/13 15:12:58;;;;;;;2.63;2.43;;;;;;;32.14;29.84;98667.50;6882740;28;20211;-79
2021/09/13 15:16:20;;;;;;;3.23;2.40;;;;;;;32.14;30.41;98673.06;6899912;28;20240;-79
2021/09/13 15:19:42;;;;;;;2.80;2.60;;;;;;;30.71;32.59;98671.44;6894726;28;20232;-79
2021/09/13 15:23:05;;;;;;;3.90;2.63;;;;;;;31.12;31.87;98662.22;6894706;28;20205;-78
2021/09/13 15:26:26;;;;;;;2.90;2.70;;;;;;;31.44;30.54;98644.72;6881408;28;20234;-79
2021/09/13 15:29:48;;;;;;;2.70;2.50;;;;;;;31.79;30.17;98657.13;6872345;28;20208;-79
2021/09/13 15:33:10;;;;;;;4.53;2.93;;;;;;;31.35;30.37;98653.19;6894343;28;20208;-78
2021/09/13 15:36:33;;;;;;;2.97;2.67;;;;;;;31.30;31.89;98655.38;6882505;28;20221;-78
2021/09/13 15:39:55;;;;;;;3.17;2.87;;;;;;;31.08;31.45;98642.59;6867287;28;20232;-78
2021/09/13 15:43:17;;;;;;;2.67;2.47;;;;;;;30.72;31.95;98650.78;6893645;28;20200;-81
2021/09/13 15:46:39;;;;;;;3.17;2.70;;;;;;;30.56;32.41;98646.97;6915086;23;20226;-81
2021/09/13 15:50:01;;;;;;;3.27;2.67;;;;;;;30.09;32.66;98631.56;6933148;28;20700;-82
2021/09/13 15:53:22;;;;;;;2.50;2.30;;;;;;;30.28;32.85;98645.84;6924845;28;20210;-80
2021/09/13 15:56:45;;;;;;;2.93;2.67;;;;;;;30.34;32.41;98632.53;6923404;28;20215;-80
2021/09/13 16:00:09;;;;;;;2.63;2.47;;;;;;;30.24;32.75;98647.66;6897943;28;20694;-79
2021/09/13 16:03:31;;;;;;;2.67;2.47;;;;;;;30.23;32.37;98648.00;6889990;28;20217;-80
2021/09/13 16:06:52;;;;;;;2.90;2.70;;;;;;;30.80;31.60;98651.88;6900820;28;20699;-80
2021/09/13 16:10:15;;;;;;;2.93;2.63;;;;;;;30.71;32.33;98659.50;6908868;28;20206;-80
2021/09/13 16:13:39;;;;;;;3.30;3.00;;;;;;;30.27;32.68;98638.66;6902708;28;20194;-81
2021/09/13 16:17:00;;;;;;;3.13;2.67;;;;;;;30.09;34.08;98651.03;6903894;28;20745;-81
2021/09/13 16:20:23;;;;;;;3.40;2.97;;;;;;;29.94;34.10;98657.13;6906669;28;20237;-83
2021/09/13 16:23:46;;;;;;;2.90;2.70;;;;;;;30.26;33.85;98613.94;6886593;28;20678;-83
2021/09/13 16:27:09;;;;;;;3.27;2.97;;;;;;;30.49;37.06;98657.78;6893352;28;20775;-83
2021/09/13 16:30:32;;;;;;;3.20;2.70;;;;;;;30.13;38.12;98651.19;6909336;28;20747;-83
2021/09/13 16:33:53;;;;;;;3.10;2.87;;;;;;;30.32;37.62;98657.91;6912460;28;20214;-84
2021/09/13 16:37:15;;;;;;;2.77;2.57;;;;;;;30.17;37.74;98636.25;6899145;28;20227;-83
2021/09/13 16:40:38;;;;;;;3.23;2.90;;;;;;;29.06;38.66;98540.56;6898154;28;20724;-82
2021/09/13 16:44:00;;;;;;;3.80;3.20;;;;;;;29.25;39.63;98663.22;6900251;28;20213;-83
2021/09/13 16:47:23;;;;;;;4.10;3.13;;;;;;;29.38;39.83;98654.66;6901827;28;20245;-83
2021/09/13 16:50:44;;;;;;;3.90;3.37;;;;;;;29.22;40.29;98661.06;6900377;28;20204;-82
2021/09/13 16:54:06;;;;;;;3.97;3.10;;;;;;;28.96;40.91;98638.91;6889199;28;20215;-83
2021/09/13 16:57:28;;;;;;;3.67;3.07;;;;;;;28.85;41.92;98673.66;6902471;28;20227;-82
2021/09/13 17:00:49;;;;;;;4.17;3.33;;;;;;;28.49;43.22;98678.69;6892446;28;20319;-84
2021/09/13 17:04:12;;;;;;;4.57;3.13;;;;;;;28.47;43.55;98683.75;6908137;28;20227;-83
2021/09/13 17:07:34;;;;;;;3.80;3.40;;;;;;;28.15;45.21;98681.38;6903044;28;20225;-83
2021/09/13 17:10:56;;;;;;;5.87;3.07;;;;;;;27.82;46.16;98685.66;6904456;28;20232;-83
2021/09/13 17:14:21;;;;;;;5.73;3.40;;;;;;;27.70;45.91;98656.84;6894928;28;20734;-83
2021/09/13 17:17:43;;;;;;;4.17;3.63;;;;;;;27.66;46.71;98678.84;6877931;28;20253;-83
2021/09/13 17:21:06;;;;;;;4.10;3.53;;;;;;;27.68;46.67;98684.06;6878966;28;20596;-83
2021/09/13 17:24:27;;;;;;;4.37;3.70;;;;;;;27.64;47.13;98681.13;6891614;28;20577;-83
2021/09/13 17:27:49;;;;;;;5.10;3.60;;;;;;;26.75;49.85;98682.28;6894671;28;20232;-83
2021/09/13 17:31:11;;;;;;;4.13;3.30;;;;;;;27.10;48.80;98686.13;6899863;28;20208;-84
2021/09/13 17:34:32;;;;;;;4.50;3.30;;;;;;;27.23;48.51;98683.34;6903061;28;20207;-84
2021/09/13 17:37:55;;;;;;;5.40;3.47;;;;;;;27.35;48.13;98685.50;6902709;28;20233;-84
2021/09/13 17:41:17;;;;;;;3.80;3.40;;;;;;;27.13;48.87;98689.09;6880043;28;20251;-84
2021/09/13 17:44:39;;;;;;;3.80;3.50;;;;;;;26.99;49.15;98677.28;6891937;28;20209;-85
2021/09/13 17:48:01;;;;;;;4.17;3.70;;;;;;;26.78;49.71;98678.88;6902704;28;20637;-84
2021/09/13 17:51:22;;;;;;;4.77;4.33;;;;;;;26.76;49.83;98678.38;6896028;28;20208;-84
2021/09/13 17:54:45;;;;;;;4.27;3.87;;;;;;;26.71;49.73;98680.47;6877280;28;20216;-84
2021/09/13 17:58:07;;;;;;;3.63;3.33;;;;;;;26.26;50.21;98662.91;6881037;28;20350;-84
2021/09/13 18:01:28;;;;;;;4.00;3.70;;;;;;;26.35;50.36;98687.88;6907915;28;20209;-84
2021/09/13 18:04:50;;;;;;;4.10;3.57;;;;;;;25.98;51.80;98688.94;6931134;28;20581;-84
2021/09/13 18:08:12;;;;;;;4.83;3.73;;;;;;;25.98;51.86;98685.34;6911695;28;20579;-84
2021/09/13 18:11:34;;;;;;;5.93;4.17;;;;;;;25.83;52.41;98678.16;6907294;28;20218;-84
2021/09/13 18:14:56;;;;;;;3.90;3.60;;;;;;;26.07;51.32;98678.00;6923676;28;20212;-84
2021/09/13 18:18:18;;;;;;;3.87;3.57;;;;;;;25.98;51.50;98680.66;6934976;28;20236;-84
2021/09/13 18:21:39;;;;;;;6.97;4.20;;;;;;;25.31;53.65;98677.78;6909123;28;20197;-84
2021/09/13 18:25:01;;;;;;;6.30;3.93;;;;;;;25.28;53.58;98681.97;6890706;28;20638;-85
2021/09/13 18:28:25;;;;;;;6.27;4.33;;;;;;;25.38;53.53;98683.72;6897001;28;20228;-84
2021/09/13 18:31:47;;;;;;;5.83;4.50;;;;;;;25.39;53.10;98693.63;6896757;28;20205;-85
2021/09/13 18:35:09;;;;;;;4.80;4.33;;;;;;;24.93;54.57;98693.56;6907246;28;20204;-85
2021/09/13 18:38:31;;;;;;;5.53;4.60;;;;;;;24.55;55.59;98691.91;6908891;28;20236;-84
2021/09/13 18:41:53;;;;;;;4.67;4.23;;;;;;;24.81;54.78;98695.13;6908060;28;20286;-85
2021/09/13 18:45:16;;;;;;;5.23;4.53;;;;;;;24.70;54.01;98677.09;6889897;28;20212;-84
2021/09/13 18:48:38;;;;;;;5.57;5.07;;;;;;;24.20;55.71;98692.38;6902913;28;20252;-84
2021/09/13 18:52:00;;;;;;;5.43;4.23;;;;;;;24.17;55.69;98698.50;6890809;28;20217;-84
2021/09/13 18:55:22;;;;;;;5.40;4.90;;;;;;;23.25;57.34;98643.91;6908495;28;20221;-84
2021/09/13 18:58:44;;;;;;;7.43;4.53;;;;;;;24.00;57.49;98698.16;6908364;28;20223;-84
2021/09/13 19:02:10;;;;;;;5.17;4.23;;;;;;;24.09;56.01;98699.16;6895072;28;20210;-85
2021/09/13 19:05:32;;;;;;;4.87;4.23;;;;;;;24.30;54.87;98695.03;6918215;28;20219;-84
2021/09/13 19:08:53;;;;;;;5.27;4.50;;;;;;;23.53;57.25;98708.28;6934986;28;20880;-84
2021/09/13 19:12:15;;;;;;;7.97;4.23;;;;;;;23.33;57.87;98708.50;6935647;28;20607;-85
2021/09/13 19:15:37;;;;;;;4.90;4.43;;;;;;;23.57;56.89;98712.13;6899733;28;20216;-84
2021/09/13 19:19:00;;;;;;;4.80;4.30;;;;;;;23.79;56.72;98712.44;6904696;28;20232;-85
2021/09/13 19:22:21;;;;;;;5.20;4.70;;;;;;;23.36;58.28;98706.00;6926342;28;20887;-84
2021/09/13 19:25:43;;;;;;;5.13;4.70;;;;;;;23.77;56.65;98722.94;6897317;28;20715;-84